Kezdőlap
METAR-TAF:

METAR-TAF

Repülőterek :

Vlagyivosztok, Oroszország

Vlagyivosztoki nemzetközi repülőtér

földrajzi szélesség: 43-07N, földrajzi hosszúság: 131-56E, magasság: 184 m

Jelenlegi meteorológiai megfigyelések

A jelentés 33 perccel ezelõtt készült, 17:00 UTC
Szélcsend
Hőmérséklet -15°C
Páratartalom 55%
Légköri nyomás 1029 hPa
Látótávolság 10 km, vagy több

METAR: UHWW 251700Z 00000MPS 9999 NSC M15/M22 Q1029 R07R/0///70 NOSIG RMK QFE770

Idő: 03:33 (17:33 UTC)

Előrejelzés

A jelentés 3 órával és 33 perccel ezelõtt készült, 14:00 UTC
Az előrejelzés 25-én 15 óra UTC és 26-én 15 óra UTC között érvényes
Különbözõ irányokból fújó szél 2 kt
Látótávolság: 4000 m
Szórványos felhőzet 3000 lábon
Száraz légköri homály
26-én 00 óra UTC és 26-én 02 óra UTC között fokozatosan kialakuló
Északi szél 6 kt
Látótávolság 10 km, vagy több

TAF: UHWW 251400Z 2515/2615 VRB01MPS 4000 HZ SCT030 BECMG 2600/2602 36003MPS 9999 NSW

Meteorológiai megfigyelések és előrejelzések több, mint 4000 repülőtéren (METAR és TAF jelentéseket).

A térképen piros és sárga pontok jelzik az elérhető meteorológiai állomásokat.

Mozgassa az egeret a pont fölött, hogy megjelenjen az állomás neve.

Azután kattintson az időjárási megfigyelések és előrejelzések megtekintéséhez.

A térkép megváltoztatása: kattintson a fekete keresztel jelölt zöld gombra ráközelítéshez, a vonallal jelölt zöld gombra távolításhoz, vagy a zöld nyilakra a szomszédos térképek eléréséhez.


METAR-TAF: